sensor_id;sensor_type;location;lat;lon;timestamp;P1;durP1;ratioP1;P2;durP2;ratioP2
66886;SDS011;53798;51.680;5.976;2022-08-07T00:01:15;3.03;;;1.50;;
66886;SDS011;53798;51.680;5.976;2022-08-07T00:04:04;5.20;;;1.50;;
66886;SDS011;53798;51.680;5.976;2022-08-07T00:06:37;3.63;;;1.65;;
66886;SDS011;53798;51.680;5.976;2022-08-07T00:09:18;3.95;;;1.70;;
66886;SDS011;53798;51.680;5.976;2022-08-07T00:11:49;4.20;;;1.77;;
66886;SDS011;53798;51.680;5.976;2022-08-07T00:14:25;3.30;;;1.80;;
66886;SDS011;53798;51.680;5.976;2022-08-07T00:16:58;2.72;;;1.70;;
66886;SDS011;53798;51.680;5.976;2022-08-07T00:19:29;2.92;;;1.80;;
66886;SDS011;53798;51.680;5.976;2022-08-07T00:22:18;2.65;;;1.73;;
66886;SDS011;53798;51.680;5.976;2022-08-07T00:25:01;4.00;;;1.90;;
66886;SDS011;53798;51.680;5.976;2022-08-07T00:27:41;3.70;;;1.85;;
66886;SDS011;53798;51.680;5.976;2022-08-07T00:30:22;3.47;;;1.60;;
66886;SDS011;53798;51.680;5.976;2022-08-07T00:32:54;2.83;;;1.92;;
66886;SDS011;53798;51.680;5.976;2022-08-07T00:35:24;3.72;;;2.15;;
66886;SDS011;53798;51.680;5.976;2022-08-07T00:37:55;3.35;;;1.60;;
66886;SDS011;53798;51.680;5.976;2022-08-07T00:40:26;4.20;;;2.03;;
66886;SDS011;53798;51.680;5.976;2022-08-07T00:43:10;2.88;;;1.70;;
66886;SDS011;53798;51.680;5.976;2022-08-07T00:45:59;2.55;;;1.65;;
66886;SDS011;53798;51.680;5.976;2022-08-07T00:48:28;3.53;;;1.95;;
66886;SDS011;53798;51.680;5.976;2022-08-07T00:50:58;2.53;;;1.80;;
66886;SDS011;53798;51.680;5.976;2022-08-07T00:53:27;3.33;;;2.08;;
66886;SDS011;53798;51.680;5.976;2022-08-07T00:56:14;2.92;;;1.98;;
66886;SDS011;53798;51.680;5.976;2022-08-07T00:58:41;2.25;;;1.85;;
66886;SDS011;53798;51.680;5.976;2022-08-07T01:01:16;3.35;;;1.80;;
66886;SDS011;53798;51.680;5.976;2022-08-07T01:03:46;3.55;;;2.10;;
66886;SDS011;53798;51.680;5.976;2022-08-07T01:06:26;2.97;;;2.10;;
66886;SDS011;53798;51.680;5.976;2022-08-07T01:08:56;2.65;;;2.03;;
66886;SDS011;53798;51.680;5.976;2022-08-07T01:11:28;2.88;;;1.90;;
66886;SDS011;53798;51.680;5.976;2022-08-07T01:14:20;2.63;;;1.70;;
66886;SDS011;53798;51.680;5.976;2022-08-07T01:16:55;3.00;;;2.00;;
66886;SDS011;53798;51.680;5.976;2022-08-07T01:19:28;2.63;;;1.90;;
66886;SDS011;53798;51.680;5.976;2022-08-07T01:21:59;3.35;;;2.08;;
66886;SDS011;53798;51.680;5.976;2022-08-07T01:24:34;4.00;;;1.92;;
66886;SDS011;53798;51.680;5.976;2022-08-07T01:27:02;3.42;;;2.25;;
66886;SDS011;53798;51.680;5.976;2022-08-07T01:29:32;5.25;;;2.45;;
66886;SDS011;53798;51.680;5.976;2022-08-07T01:32:01;3.13;;;2.10;;
66886;SDS011;53798;51.680;5.976;2022-08-07T01:34:38;5.25;;;2.20;;
66886;SDS011;53798;51.680;5.976;2022-08-07T01:37:13;2.90;;;2.22;;
66886;SDS011;53798;51.680;5.976;2022-08-07T01:39:45;3.78;;;2.20;;
66886;SDS011;53798;51.680;5.976;2022-08-07T01:42:23;3.65;;;2.20;;
66886;SDS011;53798;51.680;5.976;2022-08-07T01:45:08;4.25;;;2.20;;
66886;SDS011;53798;51.680;5.976;2022-08-07T01:47:52;2.50;;;2.28;;
66886;SDS011;53798;51.680;5.976;2022-08-07T01:50:41;3.50;;;2.50;;
66886;SDS011;53798;51.680;5.976;2022-08-07T01:53:16;3.83;;;2.70;;
66886;SDS011;53798;51.680;5.976;2022-08-07T01:56:56;2.53;;;2.15;;
66886;SDS011;53798;51.680;5.976;2022-08-07T01:59:23;4.15;;;2.63;;
66886;SDS011;53798;51.680;5.976;2022-08-07T02:02:01;4.20;;;2.90;;
66886;SDS011;53798;51.680;5.976;2022-08-07T02:04:43;4.82;;;2.95;;
66886;SDS011;53798;51.680;5.976;2022-08-07T02:07:30;4.22;;;2.60;;
66886;SDS011;53798;51.680;5.976;2022-08-07T02:10:23;4.18;;;2.95;;
66886;SDS011;53798;51.680;5.976;2022-08-07T02:12:54;4.32;;;2.55;;
66886;SDS011;53798;51.680;5.976;2022-08-07T02:15:33;5.13;;;2.85;;
66886;SDS011;53798;51.680;5.976;2022-08-07T02:18:05;3.75;;;2.47;;
66886;SDS011;53798;51.680;5.976;2022-08-07T02:20:41;4.00;;;2.88;;
66886;SDS011;53798;51.680;5.976;2022-08-07T02:23:21;4.80;;;3.10;;
66886;SDS011;53798;51.680;5.976;2022-08-07T02:25:51;4.35;;;2.90;;
66886;SDS011;53798;51.680;5.976;2022-08-07T02:28:41;3.42;;;2.55;;
66886;SDS011;53798;51.680;5.976;2022-08-07T02:31:13;4.30;;;3.10;;
66886;SDS011;53798;51.680;5.976;2022-08-07T02:33:54;5.45;;;3.10;;
66886;SDS011;53798;51.680;5.976;2022-08-07T02:36:32;5.72;;;3.35;;
66886;SDS011;53798;51.680;5.976;2022-08-07T02:39:07;6.35;;;3.38;;
66886;SDS011;53798;51.680;5.976;2022-08-07T02:41:58;4.88;;;2.92;;
66886;SDS011;53798;51.680;5.976;2022-08-07T02:44:28;6.85;;;3.40;;
66886;SDS011;53798;51.680;5.976;2022-08-07T02:47:04;5.00;;;3.30;;
66886;SDS011;53798;51.680;5.976;2022-08-07T02:49:46;3.75;;;3.25;;
66886;SDS011;53798;51.680;5.976;2022-08-07T02:52:27;5.75;;;3.33;;
66886;SDS011;53798;51.680;5.976;2022-08-07T02:55:02;6.28;;;3.60;;
66886;SDS011;53798;51.680;5.976;2022-08-07T02:57:55;4.43;;;3.42;;
66886;SDS011;53798;51.680;5.976;2022-08-07T03:00:30;5.55;;;3.03;;
66886;SDS011;53798;51.680;5.976;2022-08-07T03:03:02;6.07;;;3.60;;
66886;SDS011;53798;51.680;5.976;2022-08-07T03:05:45;5.90;;;3.22;;
66886;SDS011;53798;51.680;5.976;2022-08-07T03:08:19;6.13;;;3.88;;
66886;SDS011;53798;51.680;5.976;2022-08-07T03:10:55;4.57;;;3.58;;
66886;SDS011;53798;51.680;5.976;2022-08-07T03:13:32;5.18;;;3.65;;
66886;SDS011;53798;51.680;5.976;2022-08-07T03:16:16;5.57;;;3.75;;
66886;SDS011;53798;51.680;5.976;2022-08-07T03:18:54;7.60;;;3.78;;
66886;SDS011;53798;51.680;5.976;2022-08-07T03:21:22;6.03;;;3.70;;
66886;SDS011;53798;51.680;5.976;2022-08-07T03:23:55;5.00;;;3.97;;
66886;SDS011;53798;51.680;5.976;2022-08-07T03:29:31;5.68;;;4.30;;
66886;SDS011;53798;51.680;5.976;2022-08-07T03:32:12;5.50;;;3.72;;
66886;SDS011;53798;51.680;5.976;2022-08-07T03:34:44;5.78;;;3.80;;
66886;SDS011;53798;51.680;5.976;2022-08-07T03:37:35;6.15;;;4.30;;
66886;SDS011;53798;51.680;5.976;2022-08-07T03:40:19;5.30;;;4.07;;
66886;SDS011;53798;51.680;5.976;2022-08-07T03:42:52;5.38;;;3.78;;
66886;SDS011;53798;51.680;5.976;2022-08-07T03:45:22;4.97;;;3.97;;
66886;SDS011;53798;51.680;5.976;2022-08-07T03:48:02;5.07;;;4.00;;
66886;SDS011;53798;51.680;5.976;2022-08-07T03:50:36;6.65;;;4.10;;
66886;SDS011;53798;51.680;5.976;2022-08-07T03:53:04;5.90;;;4.00;;
66886;SDS011;53798;51.680;5.976;2022-08-07T03:55:34;7.55;;;4.10;;
66886;SDS011;53798;51.680;5.976;2022-08-07T03:58:24;4.72;;;3.60;;
66886;SDS011;53798;51.680;5.976;2022-08-07T04:01:12;5.97;;;4.03;;
66886;SDS011;53798;51.680;5.976;2022-08-07T04:03:45;8.25;;;4.28;;
66886;SDS011;53798;51.680;5.976;2022-08-07T04:06:22;8.60;;;4.72;;
66886;SDS011;53798;51.680;5.976;2022-08-07T04:09:06;6.43;;;4.15;;
66886;SDS011;53798;51.680;5.976;2022-08-07T04:11:44;6.35;;;4.65;;
66886;SDS011;53798;51.680;5.976;2022-08-07T04:14:34;6.35;;;4.43;;
66886;SDS011;53798;51.680;5.976;2022-08-07T04:17:15;6.63;;;4.43;;
66886;SDS011;53798;51.680;5.976;2022-08-07T04:19:50;6.20;;;4.50;;
66886;SDS011;53798;51.680;5.976;2022-08-07T04:22:24;7.63;;;4.43;;
66886;SDS011;53798;51.680;5.976;2022-08-07T04:24:56;7.88;;;4.65;;
66886;SDS011;53798;51.680;5.976;2022-08-07T04:27:27;5.50;;;4.50;;
66886;SDS011;53798;51.680;5.976;2022-08-07T04:30:05;6.05;;;4.55;;
66886;SDS011;53798;51.680;5.976;2022-08-07T04:32:52;7.07;;;4.90;;
66886;SDS011;53798;51.680;5.976;2022-08-07T04:35:25;6.45;;;4.72;;
66886;SDS011;53798;51.680;5.976;2022-08-07T04:38:06;7.53;;;5.05;;
66886;SDS011;53798;51.680;5.976;2022-08-07T04:40:40;7.25;;;4.75;;
66886;SDS011;53798;51.680;5.976;2022-08-07T04:43:33;8.75;;;4.97;;
66886;SDS011;53798;51.680;5.976;2022-08-07T04:49:25;8.52;;;5.30;;
66886;SDS011;53798;51.680;5.976;2022-08-07T04:52:20;9.23;;;5.38;;
66886;SDS011;53798;51.680;5.976;2022-08-07T05:01:39;8.40;;;5.13;;
66886;SDS011;53798;51.680;5.976;2022-08-07T05:05:03;7.85;;;5.68;;
66886;SDS011;53798;51.680;5.976;2022-08-07T05:08:03;7.55;;;5.75;;
66886;SDS011;53798;51.680;5.976;2022-08-07T05:11:07;8.32;;;5.75;;
66886;SDS011;53798;51.680;5.976;2022-08-07T05:13:51;8.68;;;5.45;;
66886;SDS011;53798;51.680;5.976;2022-08-07T05:16:48;8.32;;;5.72;;
66886;SDS011;53798;51.680;5.976;2022-08-07T05:19:25;8.90;;;6.80;;
66886;SDS011;53798;51.680;5.976;2022-08-07T05:22:12;10.32;;;6.68;;
66886;SDS011;53798;51.680;5.976;2022-08-07T05:24:55;10.52;;;6.82;;
66886;SDS011;53798;51.680;5.976;2022-08-07T05:27:26;8.48;;;6.28;;
66886;SDS011;53798;51.680;5.976;2022-08-07T05:30:18;11.00;;;6.50;;
66886;SDS011;53798;51.680;5.976;2022-08-07T05:32:59;10.35;;;7.10;;
66886;SDS011;53798;51.680;5.976;2022-08-07T05:35:30;10.38;;;6.78;;
66886;SDS011;53798;51.680;5.976;2022-08-07T05:38:10;11.15;;;6.28;;
66886;SDS011;53798;51.680;5.976;2022-08-07T05:40:58;9.77;;;5.90;;
66886;SDS011;53798;51.680;5.976;2022-08-07T05:43:40;8.50;;;5.78;;
66886;SDS011;53798;51.680;5.976;2022-08-07T05:46:32;9.70;;;5.22;;
66886;SDS011;53798;51.680;5.976;2022-08-07T05:49:04;7.35;;;5.65;;
66886;SDS011;53798;51.680;5.976;2022-08-07T05:51:43;7.82;;;5.30;;
66886;SDS011;53798;51.680;5.976;2022-08-07T05:54:13;5.68;;;5.07;;
66886;SDS011;53798;51.680;5.976;2022-08-07T05:57:02;7.82;;;5.13;;
66886;SDS011;53798;51.680;5.976;2022-08-07T05:59:37;7.35;;;5.30;;
66886;SDS011;53798;51.680;5.976;2022-08-07T06:02:26;6.03;;;4.93;;
66886;SDS011;53798;51.680;5.976;2022-08-07T06:05:06;7.05;;;5.45;;
66886;SDS011;53798;51.680;5.976;2022-08-07T06:07:44;7.10;;;5.35;;
66886;SDS011;53798;51.680;5.976;2022-08-07T06:10:33;7.55;;;5.80;;
66886;SDS011;53798;51.680;5.976;2022-08-07T06:13:05;8.27;;;5.55;;
66886;SDS011;53798;51.680;5.976;2022-08-07T06:15:40;9.23;;;6.10;;
66886;SDS011;53798;51.680;5.976;2022-08-07T06:18:15;7.68;;;6.18;;
66886;SDS011;53798;51.680;5.976;2022-08-07T06:20:44;9.32;;;6.07;;
66886;SDS011;53798;51.680;5.976;2022-08-07T06:23:15;9.98;;;6.45;;
66886;SDS011;53798;51.680;5.976;2022-08-07T06:26:02;8.50;;;6.43;;
66886;SDS011;53798;51.680;5.976;2022-08-07T06:28:33;14.07;;;7.53;;
66886;SDS011;53798;51.680;5.976;2022-08-07T06:31:00;10.35;;;6.65;;
66886;SDS011;53798;51.680;5.976;2022-08-07T06:33:29;10.60;;;6.63;;
66886;SDS011;53798;51.680;5.976;2022-08-07T06:35:58;10.10;;;6.85;;
66886;SDS011;53798;51.680;5.976;2022-08-07T06:38:53;9.35;;;6.78;;
66886;SDS011;53798;51.680;5.976;2022-08-07T06:41:42;12.98;;;7.18;;
66886;SDS011;53798;51.680;5.976;2022-08-07T06:44:59;10.20;;;6.70;;
66886;SDS011;53798;51.680;5.976;2022-08-07T06:47:30;13.18;;;7.47;;
66886;SDS011;53798;51.680;5.976;2022-08-07T06:50:16;9.65;;;6.65;;
66886;SDS011;53798;51.680;5.976;2022-08-07T06:52:46;9.75;;;6.65;;
66886;SDS011;53798;51.680;5.976;2022-08-07T06:55:23;10.05;;;6.82;;
66886;SDS011;53798;51.680;5.976;2022-08-07T06:58:14;12.18;;;7.68;;
66886;SDS011;53798;51.680;5.976;2022-08-07T07:00:55;15.15;;;7.50;;
66886;SDS011;53798;51.680;5.976;2022-08-07T07:03:25;10.65;;;6.65;;
66886;SDS011;53798;51.680;5.976;2022-08-07T07:06:13;10.80;;;7.03;;
66886;SDS011;53798;51.680;5.976;2022-08-07T07:08:52;8.93;;;7.00;;
66886;SDS011;53798;51.680;5.976;2022-08-07T07:11:20;11.70;;;7.43;;
66886;SDS011;53798;51.680;5.976;2022-08-07T07:14:07;13.40;;;7.55;;
66886;SDS011;53798;51.680;5.976;2022-08-07T07:16:39;9.05;;;6.43;;
66886;SDS011;53798;51.680;5.976;2022-08-07T07:19:22;10.85;;;7.28;;
66886;SDS011;53798;51.680;5.976;2022-08-07T07:22:16;11.18;;;5.78;;
66886;SDS011;53798;51.680;5.976;2022-08-07T07:25:06;8.82;;;6.07;;
66886;SDS011;53798;51.680;5.976;2022-08-07T07:27:57;11.10;;;6.57;;
66886;SDS011;53798;51.680;5.976;2022-08-07T07:30:56;10.70;;;7.30;;
66886;SDS011;53798;51.680;5.976;2022-08-07T07:33:29;10.10;;;6.32;;
66886;SDS011;53798;51.680;5.976;2022-08-07T07:36:00;13.45;;;5.85;;
66886;SDS011;53798;51.680;5.976;2022-08-07T07:38:39;7.90;;;5.50;;
66886;SDS011;53798;51.680;5.976;2022-08-07T07:41:11;9.52;;;5.40;;
66886;SDS011;53798;51.680;5.976;2022-08-07T07:43:42;9.10;;;5.88;;
66886;SDS011;53798;51.680;5.976;2022-08-07T07:46:33;8.18;;;4.85;;
66886;SDS011;53798;51.680;5.976;2022-08-07T07:49:26;8.32;;;5.05;;
66886;SDS011;53798;51.680;5.976;2022-08-07T07:52:15;6.90;;;4.38;;
66886;SDS011;53798;51.680;5.976;2022-08-07T07:54:44;7.50;;;4.50;;
66886;SDS011;53798;51.680;5.976;2022-08-07T07:57:18;7.35;;;4.95;;
66886;SDS011;53798;51.680;5.976;2022-08-07T08:00:09;7.45;;;5.05;;
66886;SDS011;53798;51.680;5.976;2022-08-07T08:02:56;7.65;;;4.35;;
66886;SDS011;53798;51.680;5.976;2022-08-07T08:05:36;6.75;;;4.45;;
66886;SDS011;53798;51.680;5.976;2022-08-07T08:08:20;6.18;;;4.28;;
66886;SDS011;53798;51.680;5.976;2022-08-07T08:11:03;6.97;;;4.20;;
66886;SDS011;53798;51.680;5.976;2022-08-07T08:13:38;7.30;;;4.10;;
66886;SDS011;53798;51.680;5.976;2022-08-07T08:16:31;5.47;;;3.30;;
66886;SDS011;53798;51.680;5.976;2022-08-07T08:19:05;8.70;;;3.42;;
66886;SDS011;53798;51.680;5.976;2022-08-07T08:21:56;4.30;;;2.92;;
66886;SDS011;53798;51.680;5.976;2022-08-07T08:24:44;4.47;;;3.10;;
66886;SDS011;53798;51.680;5.976;2022-08-07T08:27:56;6.63;;;3.08;;
66886;SDS011;53798;51.680;5.976;2022-08-07T08:30:29;6.72;;;3.10;;
66886;SDS011;53798;51.680;5.976;2022-08-07T08:33:08;5.38;;;2.80;;
66886;SDS011;53798;51.680;5.976;2022-08-07T08:35:48;3.33;;;2.35;;
66886;SDS011;53798;51.680;5.976;2022-08-07T08:38:22;4.38;;;2.47;;
66886;SDS011;53798;51.680;5.976;2022-08-07T08:41:10;6.90;;;2.40;;
66886;SDS011;53798;51.680;5.976;2022-08-07T08:46:48;4.22;;;2.30;;
66886;SDS011;53798;51.680;5.976;2022-08-07T08:52:35;5.55;;;2.30;;
66886;SDS011;53798;51.680;5.976;2022-08-07T08:55:36;4.07;;;2.20;;
66886;SDS011;53798;51.680;5.976;2022-08-07T09:01:21;3.20;;;2.22;;
66886;SDS011;53798;51.680;5.976;2022-08-07T09:04:13;3.22;;;1.77;;
66886;SDS011;53798;51.680;5.976;2022-08-07T09:07:10;4.35;;;1.67;;
66886;SDS011;53798;51.680;5.976;2022-08-07T09:27:29;3.55;;;1.55;;
66886;SDS011;53798;51.680;5.976;2022-08-07T09:30:30;5.10;;;1.80;;
66886;SDS011;53798;51.680;5.976;2022-08-07T09:33:39;3.65;;;1.50;;
66886;SDS011;53798;51.680;5.976;2022-08-07T09:45:41;2.67;;;1.98;;
66886;SDS011;53798;51.680;5.976;2022-08-07T09:48:52;4.53;;;2.30;;
66886;SDS011;53798;51.680;5.976;2022-08-07T09:55:08;2.47;;;1.58;;
66886;SDS011;53798;51.680;5.976;2022-08-07T09:58:08;3.53;;;1.90;;
66886;SDS011;53798;51.680;5.976;2022-08-07T10:00:52;4.03;;;1.92;;
66886;SDS011;53798;51.680;5.976;2022-08-07T10:10:51;2.63;;;1.50;;
66886;SDS011;53798;51.680;5.976;2022-08-07T10:14:06;1.90;;;1.38;;
66886;SDS011;53798;51.680;5.976;2022-08-07T10:17:25;2.00;;;1.30;;
66886;SDS011;53798;51.680;5.976;2022-08-07T10:27:31;4.88;;;1.50;;
66886;SDS011;53798;51.680;5.976;2022-08-07T10:48:18;2.55;;;1.38;;
66886;SDS011;53798;51.680;5.976;2022-08-07T10:54:42;2.22;;;1.20;;
66886;SDS011;53798;51.680;5.976;2022-08-07T11:06:15;3.45;;;1.67;;
66886;SDS011;53798;51.680;5.976;2022-08-07T11:09:09;3.45;;;1.48;;
66886;SDS011;53798;51.680;5.976;2022-08-07T11:12:39;4.38;;;1.40;;
66886;SDS011;53798;51.680;5.976;2022-08-07T11:15:11;2.97;;;1.33;;
66886;SDS011;53798;51.680;5.976;2022-08-07T11:17:58;2.20;;;1.20;;
66886;SDS011;53798;51.680;5.976;2022-08-07T11:24:32;2.22;;;1.30;;
66886;SDS011;53798;51.680;5.976;2022-08-07T11:32:53;2.33;;;1.42;;
66886;SDS011;53798;51.680;5.976;2022-08-07T11:35:45;2.53;;;1.55;;
66886;SDS011;53798;51.680;5.976;2022-08-07T11:42:21;3.40;;;1.73;;
66886;SDS011;53798;51.680;5.976;2022-08-07T11:57:27;4.50;;;1.80;;
66886;SDS011;53798;51.680;5.976;2022-08-07T12:04:16;5.15;;;1.67;;
66886;SDS011;53798;51.680;5.976;2022-08-07T12:06:58;2.53;;;1.88;;
66886;SDS011;53798;51.680;5.976;2022-08-07T12:09:54;2.13;;;1.70;;
66886;SDS011;53798;51.680;5.976;2022-08-07T12:12:36;1.70;;;1.35;;
66886;SDS011;53798;51.680;5.976;2022-08-07T12:18:21;2.55;;;1.63;;
66886;SDS011;53798;51.680;5.976;2022-08-07T12:24:32;5.32;;;1.63;;
66886;SDS011;53798;51.680;5.976;2022-08-07T12:27:34;2.97;;;1.58;;
66886;SDS011;53798;51.680;5.976;2022-08-07T12:30:33;2.35;;;1.52;;
66886;SDS011;53798;51.680;5.976;2022-08-07T12:33:13;5.00;;;1.58;;
66886;SDS011;53798;51.680;5.976;2022-08-07T12:38:28;3.67;;;1.55;;
66886;SDS011;53798;51.680;5.976;2022-08-07T12:41:08;4.18;;;1.50;;
66886;SDS011;53798;51.680;5.976;2022-08-07T12:43:41;2.78;;;1.60;;
66886;SDS011;53798;51.680;5.976;2022-08-07T12:46:55;2.33;;;1.30;;
66886;SDS011;53798;51.680;5.976;2022-08-07T12:52:58;2.38;;;1.20;;
66886;SDS011;53798;51.680;5.976;2022-08-07T12:56:06;2.65;;;1.40;;
66886;SDS011;53798;51.680;5.976;2022-08-07T12:58:58;2.95;;;1.40;;
66886;SDS011;53798;51.680;5.976;2022-08-07T13:05:02;3.13;;;1.10;;
66886;SDS011;53798;51.680;5.976;2022-08-07T13:08:11;2.15;;;1.20;;
66886;SDS011;53798;51.680;5.976;2022-08-07T13:11:05;3.80;;;1.48;;
66886;SDS011;53798;51.680;5.976;2022-08-07T13:14:28;2.42;;;1.20;;
66886;SDS011;53798;51.680;5.976;2022-08-07T13:17:37;3.33;;;1.55;;
66886;SDS011;53798;51.680;5.976;2022-08-07T13:20:33;2.35;;;1.30;;
66886;SDS011;53798;51.680;5.976;2022-08-07T13:23:23;2.28;;;1.02;;
66886;SDS011;53798;51.680;5.976;2022-08-07T13:38:57;3.08;;;1.20;;
66886;SDS011;53798;51.680;5.976;2022-08-07T13:41:54;2.00;;;1.40;;
66886;SDS011;53798;51.680;5.976;2022-08-07T13:44:24;3.38;;;1.42;;
66886;SDS011;53798;51.680;5.976;2022-08-07T13:47:02;3.95;;;1.70;;
66886;SDS011;53798;51.680;5.976;2022-08-07T13:49:44;3.42;;;1.23;;
66886;SDS011;53798;51.680;5.976;2022-08-07T13:52:37;3.38;;;1.17;;
66886;SDS011;53798;51.680;5.976;2022-08-07T13:55:15;2.15;;;1.25;;
66886;SDS011;53798;51.680;5.976;2022-08-07T13:58:00;1.63;;;1.30;;
66886;SDS011;53798;51.680;5.976;2022-08-07T14:00:57;2.50;;;1.25;;
66886;SDS011;53798;51.680;5.976;2022-08-07T14:03:36;1.95;;;1.10;;
66886;SDS011;53798;51.680;5.976;2022-08-07T14:06:31;2.63;;;1.10;;
66886;SDS011;53798;51.680;5.976;2022-08-07T14:09:02;1.95;;;1.10;;
66886;SDS011;53798;51.680;5.976;2022-08-07T14:11:33;1.65;;;1.33;;
66886;SDS011;53798;51.680;5.976;2022-08-07T14:14:29;4.95;;;1.30;;
66886;SDS011;53798;51.680;5.976;2022-08-07T14:17:09;2.42;;;1.20;;
66886;SDS011;53798;51.680;5.976;2022-08-07T14:20:03;2.53;;;1.10;;
66886;SDS011;53798;51.680;5.976;2022-08-07T14:23:10;4.93;;;1.35;;
66886;SDS011;53798;51.680;5.976;2022-08-07T14:26:09;3.33;;;1.10;;
66886;SDS011;53798;51.680;5.976;2022-08-07T14:28:56;3.25;;;1.02;;
66886;SDS011;53798;51.680;5.976;2022-08-07T14:31:48;4.72;;;1.38;;
66886;SDS011;53798;51.680;5.976;2022-08-07T14:34:24;2.65;;;1.20;;
66886;SDS011;53798;51.680;5.976;2022-08-07T14:37:00;1.80;;;0.90;;
66886;SDS011;53798;51.680;5.976;2022-08-07T14:39:46;2.63;;;1.50;;
66886;SDS011;53798;51.680;5.976;2022-08-07T14:42:35;2.95;;;1.50;;
66886;SDS011;53798;51.680;5.976;2022-08-07T14:45:27;3.00;;;1.20;;
66886;SDS011;53798;51.680;5.976;2022-08-07T14:48:15;1.95;;;1.00;;
66886;SDS011;53798;51.680;5.976;2022-08-07T14:50:54;3.65;;;1.10;;
66886;SDS011;53798;51.680;5.976;2022-08-07T14:53:54;2.40;;;1.20;;
66886;SDS011;53798;51.680;5.976;2022-08-07T14:56:46;4.38;;;1.42;;
66886;SDS011;53798;51.680;5.976;2022-08-07T14:59:19;1.95;;;1.10;;
66886;SDS011;53798;51.680;5.976;2022-08-07T15:02:11;1.63;;;1.13;;
66886;SDS011;53798;51.680;5.976;2022-08-07T15:05:00;1.55;;;1.05;;
66886;SDS011;53798;51.680;5.976;2022-08-07T15:07:29;2.72;;;1.10;;
66886;SDS011;53798;51.680;5.976;2022-08-07T15:10:20;4.75;;;1.20;;
66886;SDS011;53798;51.680;5.976;2022-08-07T15:13:18;2.20;;;1.23;;
66886;SDS011;53798;51.680;5.976;2022-08-07T15:15:52;1.70;;;1.00;;
66886;SDS011;53798;51.680;5.976;2022-08-07T15:18:43;2.10;;;1.15;;
66886;SDS011;53798;51.680;5.976;2022-08-07T15:21:18;1.67;;;1.10;;
66886;SDS011;53798;51.680;5.976;2022-08-07T15:24:19;2.00;;;1.13;;
66886;SDS011;53798;51.680;5.976;2022-08-07T15:27:17;3.03;;;1.10;;
66886;SDS011;53798;51.680;5.976;2022-08-07T15:29:54;2.55;;;1.00;;
66886;SDS011;53798;51.680;5.976;2022-08-07T15:32:47;2.78;;;1.15;;
66886;SDS011;53798;51.680;5.976;2022-08-07T15:35:36;2.67;;;1.27;;
66886;SDS011;53798;51.680;5.976;2022-08-07T15:38:27;2.58;;;1.17;;
66886;SDS011;53798;51.680;5.976;2022-08-07T15:41:16;1.90;;;1.40;;
66886;SDS011;53798;51.680;5.976;2022-08-07T15:44:10;1.90;;;1.00;;
66886;SDS011;53798;51.680;5.976;2022-08-07T15:46:42;1.80;;;1.25;;
66886;SDS011;53798;51.680;5.976;2022-08-07T15:49:35;2.55;;;1.30;;
66886;SDS011;53798;51.680;5.976;2022-08-07T15:52:28;2.17;;;1.45;;
66886;SDS011;53798;51.680;5.976;2022-08-07T15:55:00;3.47;;;1.60;;
66886;SDS011;53798;51.680;5.976;2022-08-07T15:57:37;3.40;;;1.35;;
66886;SDS011;53798;51.680;5.976;2022-08-07T16:00:15;2.42;;;1.30;;
66886;SDS011;53798;51.680;5.976;2022-08-07T16:03:19;3.75;;;1.52;;
66886;SDS011;53798;51.680;5.976;2022-08-07T16:06:10;1.80;;;1.40;;
66886;SDS011;53798;51.680;5.976;2022-08-07T16:08:39;2.38;;;1.50;;
66886;SDS011;53798;51.680;5.976;2022-08-07T16:21:08;4.70;;;1.63;;
66886;SDS011;53798;51.680;5.976;2022-08-07T16:24:32;2.80;;;1.48;;
66886;SDS011;53798;51.680;5.976;2022-08-07T16:27:30;2.15;;;1.52;;
66886;SDS011;53798;51.680;5.976;2022-08-07T16:30:09;3.88;;;1.73;;
66886;SDS011;53798;51.680;5.976;2022-08-07T16:33:00;3.03;;;1.50;;
66886;SDS011;53798;51.680;5.976;2022-08-07T16:36:07;2.30;;;1.60;;
66886;SDS011;53798;51.680;5.976;2022-08-07T16:43:03;1.80;;;1.45;;
66886;SDS011;53798;51.680;5.976;2022-08-07T16:46:28;2.63;;;1.33;;
66886;SDS011;53798;51.680;5.976;2022-08-07T16:50:08;2.28;;;1.40;;
66886;SDS011;53798;51.680;5.976;2022-08-07T17:15:06;2.55;;;1.23;;
66886;SDS011;53798;51.680;5.976;2022-08-07T17:18:01;3.42;;;1.60;;
66886;SDS011;53798;51.680;5.976;2022-08-07T17:20:55;4.38;;;1.40;;
66886;SDS011;53798;51.680;5.976;2022-08-07T17:26:10;2.90;;;1.58;;
66886;SDS011;53798;51.680;5.976;2022-08-07T17:35:11;2.13;;;1.40;;
66886;SDS011;53798;51.680;5.976;2022-08-07T17:38:12;1.83;;;1.23;;
66886;SDS011;53798;51.680;5.976;2022-08-07T17:41:06;1.83;;;1.20;;
66886;SDS011;53798;51.680;5.976;2022-08-07T17:43:58;5.30;;;2.78;;
66886;SDS011;53798;51.680;5.976;2022-08-07T17:46:46;2.08;;;1.25;;
66886;SDS011;53798;51.680;5.976;2022-08-07T17:49:43;1.42;;;1.10;;
66886;SDS011;53798;51.680;5.976;2022-08-07T17:52:36;2.20;;;1.00;;
66886;SDS011;53798;51.680;5.976;2022-08-07T17:55:21;3.63;;;1.05;;
66886;SDS011;53798;51.680;5.976;2022-08-07T17:58:21;1.00;;;0.90;;
66886;SDS011;53798;51.680;5.976;2022-08-07T18:01:15;1.80;;;1.20;;
66886;SDS011;53798;51.680;5.976;2022-08-07T18:09:51;1.38;;;0.80;;
66886;SDS011;53798;51.680;5.976;2022-08-07T18:12:41;1.13;;;0.95;;
66886;SDS011;53798;51.680;5.976;2022-08-07T18:15:21;4.03;;;1.02;;
66886;SDS011;53798;51.680;5.976;2022-08-07T18:18:07;1.35;;;0.90;;
66886;SDS011;53798;51.680;5.976;2022-08-07T18:30:15;1.92;;;1.00;;
66886;SDS011;53798;51.680;5.976;2022-08-07T18:33:15;3.42;;;1.10;;
66886;SDS011;53798;51.680;5.976;2022-08-07T18:39:10;1.25;;;0.95;;
66886;SDS011;53798;51.680;5.976;2022-08-07T18:45:07;1.65;;;0.90;;
66886;SDS011;53798;51.680;5.976;2022-08-07T18:48:04;1.77;;;1.00;;
66886;SDS011;53798;51.680;5.976;2022-08-07T19:04:35;2.05;;;0.93;;
66886;SDS011;53798;51.680;5.976;2022-08-07T19:14:00;3.13;;;1.00;;
66886;SDS011;53798;51.680;5.976;2022-08-07T19:16:52;1.70;;;1.00;;
66886;SDS011;53798;51.680;5.976;2022-08-07T19:19:37;2.97;;;1.27;;
66886;SDS011;53798;51.680;5.976;2022-08-07T19:22:39;1.67;;;1.17;;
66886;SDS011;53798;51.680;5.976;2022-08-07T19:25:45;3.10;;;0.98;;
66886;SDS011;53798;51.680;5.976;2022-08-07T19:28:36;1.98;;;1.10;;
66886;SDS011;53798;51.680;5.976;2022-08-07T19:31:36;2.80;;;1.20;;
66886;SDS011;53798;51.680;5.976;2022-08-07T19:34:28;2.05;;;1.13;;
66886;SDS011;53798;51.680;5.976;2022-08-07T19:37:02;1.80;;;1.10;;
66886;SDS011;53798;51.680;5.976;2022-08-07T19:40:05;2.33;;;1.17;;
66886;SDS011;53798;51.680;5.976;2022-08-07T19:42:38;3.47;;;1.00;;
66886;SDS011;53798;51.680;5.976;2022-08-07T19:45:12;2.72;;;1.38;;
66886;SDS011;53798;51.680;5.976;2022-08-07T19:48:06;2.97;;;1.40;;
66886;SDS011;53798;51.680;5.976;2022-08-07T19:50:44;3.72;;;1.77;;
66886;SDS011;53798;51.680;5.976;2022-08-07T19:53:19;3.13;;;1.08;;
66886;SDS011;53798;51.680;5.976;2022-08-07T19:56:07;1.75;;;1.10;;
66886;SDS011;53798;51.680;5.976;2022-08-07T19:58:57;2.47;;;1.08;;
66886;SDS011;53798;51.680;5.976;2022-08-07T20:01:28;2.42;;;1.27;;
66886;SDS011;53798;51.680;5.976;2022-08-07T20:04:36;3.30;;;1.20;;
66886;SDS011;53798;51.680;5.976;2022-08-07T20:07:30;3.03;;;1.20;;
66886;SDS011;53798;51.680;5.976;2022-08-07T20:10:33;2.05;;;1.10;;
66886;SDS011;53798;51.680;5.976;2022-08-07T20:13:22;5.47;;;1.30;;
66886;SDS011;53798;51.680;5.976;2022-08-07T20:16:00;5.72;;;1.40;;
66886;SDS011;53798;51.680;5.976;2022-08-07T20:18:30;1.60;;;1.23;;
66886;SDS011;53798;51.680;5.976;2022-08-07T20:21:02;2.58;;;1.33;;
66886;SDS011;53798;51.680;5.976;2022-08-07T20:23:52;3.20;;;1.20;;
66886;SDS011;53798;51.680;5.976;2022-08-07T20:26:29;2.45;;;1.52;;
66886;SDS011;53798;51.680;5.976;2022-08-07T20:29:11;5.20;;;1.20;;
66886;SDS011;53798;51.680;5.976;2022-08-07T20:32:02;2.63;;;1.23;;